Terminal Aerodrome Forecast
Issued by NWS Tulsa, OK

Home | Current Version | Previous Version | Text Only | Print | Product List | Glossary On
Versions: 1 2 3 4 5 6 7 8 9 10 11 12
000
FTUS44 KTSA 211100
TAFFSM
TAF
KFSM 211123Z 2112/2212 00000KT 4SM BR FEW030 BKN080
     FM211400 00000KT P6SM VCSH BKN030
      TEMPO 2114/2118 5SM -TSRA OVC010CB
     FM212300 27006KT P6SM BKN025
     FM220600 31006KT P6SM BKN050=

USA.gov is the U.S. government's official web portal to all federal, state and local government web resources and services.